sensor_id;sensor_type;location;lat;lon;timestamp;P1;durP1;ratioP1;P2;durP2;ratioP2
17965;SDS011;9108;53.204;10.424;2023-10-09T00:01:28;5.25;;;1.70;;
17965;SDS011;9108;53.204;10.424;2023-10-09T00:03:56;8.18;;;1.73;;
17965;SDS011;9108;53.204;10.424;2023-10-09T00:06:26;8.70;;;1.80;;
17965;SDS011;9108;53.204;10.424;2023-10-09T00:09:02;7.28;;;1.60;;
17965;SDS011;9108;53.204;10.424;2023-10-09T00:11:51;4.65;;;1.65;;
17965;SDS011;9108;53.204;10.424;2023-10-09T00:14:22;6.78;;;2.00;;
17965;SDS011;9108;53.204;10.424;2023-10-09T00:16:51;5.55;;;1.52;;
17965;SDS011;9108;53.204;10.424;2023-10-09T00:19:30;5.90;;;1.60;;
17965;SDS011;9108;53.204;10.424;2023-10-09T00:21:58;7.43;;;1.80;;
17965;SDS011;9108;53.204;10.424;2023-10-09T00:24:31;5.45;;;1.60;;
17965;SDS011;9108;53.204;10.424;2023-10-09T00:26:59;6.45;;;1.80;;
17965;SDS011;9108;53.204;10.424;2023-10-09T00:29:37;5.55;;;1.60;;
17965;SDS011;9108;53.204;10.424;2023-10-09T00:32:11;4.80;;;1.90;;
17965;SDS011;9108;53.204;10.424;2023-10-09T00:34:48;4.70;;;1.85;;
17965;SDS011;9108;53.204;10.424;2023-10-09T00:37:15;4.03;;;1.50;;
17965;SDS011;9108;53.204;10.424;2023-10-09T00:39:47;6.38;;;1.90;;
17965;SDS011;9108;53.204;10.424;2023-10-09T00:42:21;7.03;;;1.83;;
17965;SDS011;9108;53.204;10.424;2023-10-09T00:44:54;8.40;;;1.80;;
17965;SDS011;9108;53.204;10.424;2023-10-09T00:47:22;7.63;;;1.98;;
17965;SDS011;9108;53.204;10.424;2023-10-09T00:50:00;6.07;;;1.73;;
17965;SDS011;9108;53.204;10.424;2023-10-09T00:52:36;5.80;;;1.85;;
17965;SDS011;9108;53.204;10.424;2023-10-09T00:55:09;6.47;;;1.80;;
17965;SDS011;9108;53.204;10.424;2023-10-09T00:57:39;7.72;;;1.90;;
17965;SDS011;9108;53.204;10.424;2023-10-09T01:00:07;6.82;;;1.92;;
17965;SDS011;9108;53.204;10.424;2023-10-09T01:02:58;7.65;;;2.03;;
17965;SDS011;9108;53.204;10.424;2023-10-09T01:05:44;6.28;;;2.00;;
17965;SDS011;9108;53.204;10.424;2023-10-09T01:08:17;9.60;;;2.05;;
17965;SDS011;9108;53.204;10.424;2023-10-09T01:10:50;11.98;;;2.30;;
17965;SDS011;9108;53.204;10.424;2023-10-09T01:13:21;7.55;;;2.10;;
17965;SDS011;9108;53.204;10.424;2023-10-09T01:15:52;7.07;;;2.10;;
17965;SDS011;9108;53.204;10.424;2023-10-09T01:18:25;5.78;;;2.15;;
17965;SDS011;9108;53.204;10.424;2023-10-09T01:21:01;7.43;;;2.20;;
17965;SDS011;9108;53.204;10.424;2023-10-09T01:23:30;6.63;;;2.20;;
17965;SDS011;9108;53.204;10.424;2023-10-09T01:25:57;9.18;;;2.33;;
17965;SDS011;9108;53.204;10.424;2023-10-09T01:28:24;8.75;;;2.50;;
17965;SDS011;9108;53.204;10.424;2023-10-09T01:30:53;9.50;;;2.63;;
17965;SDS011;9108;53.204;10.424;2023-10-09T01:33:21;10.68;;;2.33;;
17965;SDS011;9108;53.204;10.424;2023-10-09T01:35:49;7.55;;;2.70;;
17965;SDS011;9108;53.204;10.424;2023-10-09T01:38:21;8.77;;;2.90;;
17965;SDS011;9108;53.204;10.424;2023-10-09T01:41:06;10.95;;;2.92;;
17965;SDS011;9108;53.204;10.424;2023-10-09T01:43:34;7.43;;;2.80;;
17965;SDS011;9108;53.204;10.424;2023-10-09T01:46:01;8.88;;;2.90;;
17965;SDS011;9108;53.204;10.424;2023-10-09T01:48:30;8.85;;;2.80;;
17965;SDS011;9108;53.204;10.424;2023-10-09T01:51:04;8.73;;;2.75;;
17965;SDS011;9108;53.204;10.424;2023-10-09T01:53:33;8.30;;;2.90;;
17965;SDS011;9108;53.204;10.424;2023-10-09T01:56:10;9.27;;;2.63;;
17965;SDS011;9108;53.204;10.424;2023-10-09T01:58:41;7.57;;;2.40;;
17965;SDS011;9108;53.204;10.424;2023-10-09T02:01:12;8.50;;;2.47;;
17965;SDS011;9108;53.204;10.424;2023-10-09T02:03:40;7.33;;;2.50;;
17965;SDS011;9108;53.204;10.424;2023-10-09T02:06:08;8.27;;;2.75;;
17965;SDS011;9108;53.204;10.424;2023-10-09T02:08:49;6.97;;;2.33;;
17965;SDS011;9108;53.204;10.424;2023-10-09T02:11:18;6.28;;;2.30;;
17965;SDS011;9108;53.204;10.424;2023-10-09T02:13:49;9.02;;;2.53;;
17965;SDS011;9108;53.204;10.424;2023-10-09T02:16:27;6.88;;;2.40;;
17965;SDS011;9108;53.204;10.424;2023-10-09T02:18:54;7.65;;;2.33;;
17965;SDS011;9108;53.204;10.424;2023-10-09T02:21:24;7.22;;;2.30;;
17965;SDS011;9108;53.204;10.424;2023-10-09T02:23:59;8.23;;;2.47;;
17965;SDS011;9108;53.204;10.424;2023-10-09T02:26:31;7.55;;;2.35;;
17965;SDS011;9108;53.204;10.424;2023-10-09T02:29:21;7.50;;;2.40;;
17965;SDS011;9108;53.204;10.424;2023-10-09T02:31:49;7.38;;;2.40;;
17965;SDS011;9108;53.204;10.424;2023-10-09T02:34:18;6.30;;;2.30;;
17965;SDS011;9108;53.204;10.424;2023-10-09T02:36:48;10.32;;;2.40;;
17965;SDS011;9108;53.204;10.424;2023-10-09T02:39:22;8.23;;;2.28;;
17965;SDS011;9108;53.204;10.424;2023-10-09T02:41:52;10.07;;;2.60;;
17965;SDS011;9108;53.204;10.424;2023-10-09T02:44:25;7.60;;;2.35;;
17965;SDS011;9108;53.204;10.424;2023-10-09T02:46:55;6.20;;;2.47;;
17965;SDS011;9108;53.204;10.424;2023-10-09T02:49:22;6.43;;;2.15;;
17965;SDS011;9108;53.204;10.424;2023-10-09T02:51:51;6.72;;;2.40;;
17965;SDS011;9108;53.204;10.424;2023-10-09T02:54:19;7.13;;;2.30;;
17965;SDS011;9108;53.204;10.424;2023-10-09T02:57:01;7.05;;;2.20;;
17965;SDS011;9108;53.204;10.424;2023-10-09T02:59:33;9.48;;;2.40;;
17965;SDS011;9108;53.204;10.424;2023-10-09T03:02:02;8.38;;;2.03;;
17965;SDS011;9108;53.204;10.424;2023-10-09T03:04:29;7.10;;;2.20;;
17965;SDS011;9108;53.204;10.424;2023-10-09T03:06:56;6.82;;;2.10;;
17965;SDS011;9108;53.204;10.424;2023-10-09T03:09:24;7.00;;;2.10;;
17965;SDS011;9108;53.204;10.424;2023-10-09T03:11:56;5.72;;;1.88;;
17965;SDS011;9108;53.204;10.424;2023-10-09T03:14:28;6.47;;;2.00;;
17965;SDS011;9108;53.204;10.424;2023-10-09T03:16:56;9.15;;;2.65;;
17965;SDS011;9108;53.204;10.424;2023-10-09T03:19:24;7.97;;;2.00;;
17965;SDS011;9108;53.204;10.424;2023-10-09T03:21:53;6.57;;;1.85;;
17965;SDS011;9108;53.204;10.424;2023-10-09T03:24:22;5.97;;;1.88;;
17965;SDS011;9108;53.204;10.424;2023-10-09T03:26:49;5.63;;;1.83;;
17965;SDS011;9108;53.204;10.424;2023-10-09T03:29:21;6.50;;;1.88;;
17965;SDS011;9108;53.204;10.424;2023-10-09T03:31:49;6.18;;;1.83;;
17965;SDS011;9108;53.204;10.424;2023-10-09T03:34:17;6.95;;;1.98;;
17965;SDS011;9108;53.204;10.424;2023-10-09T03:36:44;4.50;;;1.70;;
17965;SDS011;9108;53.204;10.424;2023-10-09T03:39:13;4.68;;;1.60;;
17965;SDS011;9108;53.204;10.424;2023-10-09T03:41:49;5.93;;;1.70;;
17965;SDS011;9108;53.204;10.424;2023-10-09T03:44:17;8.07;;;2.00;;
17965;SDS011;9108;53.204;10.424;2023-10-09T03:46:44;5.13;;;1.80;;
17965;SDS011;9108;53.204;10.424;2023-10-09T03:49:12;6.03;;;1.80;;
17965;SDS011;9108;53.204;10.424;2023-10-09T03:51:47;6.03;;;1.90;;
17965;SDS011;9108;53.204;10.424;2023-10-09T03:54:15;5.13;;;1.73;;
17965;SDS011;9108;53.204;10.424;2023-10-09T03:56:45;7.05;;;2.00;;
17965;SDS011;9108;53.204;10.424;2023-10-09T03:59:15;6.30;;;1.90;;
17965;SDS011;9108;53.204;10.424;2023-10-09T04:01:42;7.60;;;1.85;;
17965;SDS011;9108;53.204;10.424;2023-10-09T04:04:10;5.32;;;1.88;;
17965;SDS011;9108;53.204;10.424;2023-10-09T04:06:40;5.40;;;1.88;;
17965;SDS011;9108;53.204;10.424;2023-10-09T04:09:08;5.88;;;2.03;;
17965;SDS011;9108;53.204;10.424;2023-10-09T04:11:53;4.85;;;1.70;;
17965;SDS011;9108;53.204;10.424;2023-10-09T04:14:38;7.43;;;2.00;;
17965;SDS011;9108;53.204;10.424;2023-10-09T04:17:13;7.28;;;2.10;;
17965;SDS011;9108;53.204;10.424;2023-10-09T04:19:55;6.50;;;2.03;;
17965;SDS011;9108;53.204;10.424;2023-10-09T04:22:37;6.00;;;2.00;;
17965;SDS011;9108;53.204;10.424;2023-10-09T04:25:08;7.22;;;2.00;;
17965;SDS011;9108;53.204;10.424;2023-10-09T04:27:39;6.63;;;2.28;;
17965;SDS011;9108;53.204;10.424;2023-10-09T04:30:07;6.65;;;2.00;;
17965;SDS011;9108;53.204;10.424;2023-10-09T04:32:40;6.57;;;2.20;;
17965;SDS011;9108;53.204;10.424;2023-10-09T04:35:09;8.82;;;2.20;;
17965;SDS011;9108;53.204;10.424;2023-10-09T04:37:49;6.82;;;2.10;;
17965;SDS011;9108;53.204;10.424;2023-10-09T04:40:25;5.32;;;2.15;;
17965;SDS011;9108;53.204;10.424;2023-10-09T04:43:16;7.75;;;2.30;;
17965;SDS011;9108;53.204;10.424;2023-10-09T04:45:47;5.68;;;2.13;;
17965;SDS011;9108;53.204;10.424;2023-10-09T04:48:33;6.45;;;2.20;;
17965;SDS011;9108;53.204;10.424;2023-10-09T04:51:04;9.32;;;2.28;;
17965;SDS011;9108;53.204;10.424;2023-10-09T04:53:47;6.78;;;2.20;;
17965;SDS011;9108;53.204;10.424;2023-10-09T04:56:25;6.05;;;2.03;;
17965;SDS011;9108;53.204;10.424;2023-10-09T04:58:56;6.70;;;2.13;;
17965;SDS011;9108;53.204;10.424;2023-10-09T05:01:28;5.50;;;2.10;;
17965;SDS011;9108;53.204;10.424;2023-10-09T05:04:08;7.65;;;2.20;;
17965;SDS011;9108;53.204;10.424;2023-10-09T05:06:54;7.03;;;2.10;;
17965;SDS011;9108;53.204;10.424;2023-10-09T05:09:25;7.57;;;2.20;;
17965;SDS011;9108;53.204;10.424;2023-10-09T05:12:06;5.67;;;2.07;;
17965;SDS011;9108;53.204;10.424;2023-10-09T05:14:40;4.97;;;2.00;;
17965;SDS011;9108;53.204;10.424;2023-10-09T05:17:19;6.47;;;1.90;;
17965;SDS011;9108;53.204;10.424;2023-10-09T05:19:50;5.28;;;2.08;;
17965;SDS011;9108;53.204;10.424;2023-10-09T05:22:37;6.55;;;2.05;;
17965;SDS011;9108;53.204;10.424;2023-10-09T05:25:06;6.75;;;2.00;;
17965;SDS011;9108;53.204;10.424;2023-10-09T05:27:55;6.70;;;2.00;;
17965;SDS011;9108;53.204;10.424;2023-10-09T05:30:41;6.38;;;2.20;;
17965;SDS011;9108;53.204;10.424;2023-10-09T05:33:08;7.10;;;2.07;;
17965;SDS011;9108;53.204;10.424;2023-10-09T05:35:49;5.85;;;2.10;;
17965;SDS011;9108;53.204;10.424;2023-10-09T05:38:31;5.25;;;1.90;;
17965;SDS011;9108;53.204;10.424;2023-10-09T05:41:02;6.53;;;2.17;;
17965;SDS011;9108;53.204;10.424;2023-10-09T05:43:43;7.05;;;2.00;;
17965;SDS011;9108;53.204;10.424;2023-10-09T05:46:27;6.82;;;2.05;;
17965;SDS011;9108;53.204;10.424;2023-10-09T05:49:00;5.47;;;1.80;;
17965;SDS011;9108;53.204;10.424;2023-10-09T05:51:34;5.38;;;2.20;;
17965;SDS011;9108;53.204;10.424;2023-10-09T05:54:18;6.60;;;2.45;;
17965;SDS011;9108;53.204;10.424;2023-10-09T05:57:12;6.90;;;2.75;;
17965;SDS011;9108;53.204;10.424;2023-10-09T05:59:57;8.13;;;2.40;;
17965;SDS011;9108;53.204;10.424;2023-10-09T06:02:42;5.68;;;2.10;;
17965;SDS011;9108;53.204;10.424;2023-10-09T06:05:26;6.32;;;2.30;;
17965;SDS011;9108;53.204;10.424;2023-10-09T06:08:27;6.85;;;2.35;;
17965;SDS011;9108;53.204;10.424;2023-10-09T06:11:14;6.07;;;2.50;;
17965;SDS011;9108;53.204;10.424;2023-10-09T06:13:57;9.10;;;2.60;;
17965;SDS011;9108;53.204;10.424;2023-10-09T06:16:29;7.65;;;2.60;;
17965;SDS011;9108;53.204;10.424;2023-10-09T06:19:06;8.18;;;2.67;;
17965;SDS011;9108;53.204;10.424;2023-10-09T06:21:38;7.20;;;2.70;;
17965;SDS011;9108;53.204;10.424;2023-10-09T06:24:05;7.15;;;2.65;;
17965;SDS011;9108;53.204;10.424;2023-10-09T06:26:39;6.50;;;2.85;;
17965;SDS011;9108;53.204;10.424;2023-10-09T06:29:20;7.22;;;2.78;;
17965;SDS011;9108;53.204;10.424;2023-10-09T06:32:00;9.55;;;2.90;;
17965;SDS011;9108;53.204;10.424;2023-10-09T06:34:41;7.47;;;3.13;;
17965;SDS011;9108;53.204;10.424;2023-10-09T06:37:11;7.47;;;3.00;;
17965;SDS011;9108;53.204;10.424;2023-10-09T06:39:59;7.32;;;3.00;;
17965;SDS011;9108;53.204;10.424;2023-10-09T06:42:56;9.38;;;3.15;;
17965;SDS011;9108;53.204;10.424;2023-10-09T06:45:24;7.68;;;3.00;;
17965;SDS011;9108;53.204;10.424;2023-10-09T06:48:09;8.02;;;3.10;;
17965;SDS011;9108;53.204;10.424;2023-10-09T06:51:05;7.60;;;3.20;;
17965;SDS011;9108;53.204;10.424;2023-10-09T06:53:38;6.60;;;3.15;;
17965;SDS011;9108;53.204;10.424;2023-10-09T06:56:23;7.88;;;3.50;;
17965;SDS011;9108;53.204;10.424;2023-10-09T06:59:10;8.98;;;3.70;;
17965;SDS011;9108;53.204;10.424;2023-10-09T07:01:42;7.55;;;3.70;;
17965;SDS011;9108;53.204;10.424;2023-10-09T07:04:12;8.52;;;3.90;;
17965;SDS011;9108;53.204;10.424;2023-10-09T07:06:43;7.75;;;3.72;;
17965;SDS011;9108;53.204;10.424;2023-10-09T07:09:22;10.23;;;4.10;;
17965;SDS011;9108;53.204;10.424;2023-10-09T07:11:48;8.40;;;3.90;;
17965;SDS011;9108;53.204;10.424;2023-10-09T07:14:34;8.80;;;4.30;;
17965;SDS011;9108;53.204;10.424;2023-10-09T07:17:21;10.95;;;4.32;;
17965;SDS011;9108;53.204;10.424;2023-10-09T07:19:52;9.98;;;4.18;;
17965;SDS011;9108;53.204;10.424;2023-10-09T07:22:59;7.72;;;4.18;;
17965;SDS011;9108;53.204;10.424;2023-10-09T07:25:39;8.60;;;4.30;;
17965;SDS011;9108;53.204;10.424;2023-10-09T07:28:08;9.90;;;4.50;;
17965;SDS011;9108;53.204;10.424;2023-10-09T07:30:49;7.30;;;4.30;;
17965;SDS011;9108;53.204;10.424;2023-10-09T07:33:24;9.15;;;4.20;;
17965;SDS011;9108;53.204;10.424;2023-10-09T07:36:16;8.88;;;4.43;;
17965;SDS011;9108;53.204;10.424;2023-10-09T07:38:54;9.13;;;4.47;;
17965;SDS011;9108;53.204;10.424;2023-10-09T07:41:21;9.50;;;4.85;;
17965;SDS011;9108;53.204;10.424;2023-10-09T07:44:03;8.77;;;4.85;;
17965;SDS011;9108;53.204;10.424;2023-10-09T07:46:44;9.00;;;4.90;;
17965;SDS011;9108;53.204;10.424;2023-10-09T07:49:18;10.57;;;4.90;;
17965;SDS011;9108;53.204;10.424;2023-10-09T07:51:49;8.32;;;4.30;;
17965;SDS011;9108;53.204;10.424;2023-10-09T07:54:17;10.52;;;4.90;;
17965;SDS011;9108;53.204;10.424;2023-10-09T07:56:57;11.00;;;5.03;;
17965;SDS011;9108;53.204;10.424;2023-10-09T07:59:34;10.27;;;5.15;;
17965;SDS011;9108;53.204;10.424;2023-10-09T08:02:06;9.18;;;4.80;;
17965;SDS011;9108;53.204;10.424;2023-10-09T08:04:39;8.68;;;4.75;;
17965;SDS011;9108;53.204;10.424;2023-10-09T08:07:14;10.27;;;5.13;;
17965;SDS011;9108;53.204;10.424;2023-10-09T08:09:50;9.50;;;4.70;;
17965;SDS011;9108;53.204;10.424;2023-10-09T08:12:42;9.90;;;5.20;;
17965;SDS011;9108;53.204;10.424;2023-10-09T08:15:45;8.70;;;4.40;;
17965;SDS011;9108;53.204;10.424;2023-10-09T08:18:16;9.15;;;4.78;;
17965;SDS011;9108;53.204;10.424;2023-10-09T08:20:54;8.10;;;4.35;;
17965;SDS011;9108;53.204;10.424;2023-10-09T08:23:39;9.13;;;5.20;;
17965;SDS011;9108;53.204;10.424;2023-10-09T08:26:14;9.32;;;5.00;;
17965;SDS011;9108;53.204;10.424;2023-10-09T08:28:53;9.38;;;5.20;;
17965;SDS011;9108;53.204;10.424;2023-10-09T08:31:22;9.45;;;5.20;;
17965;SDS011;9108;53.204;10.424;2023-10-09T08:34:10;10.13;;;5.30;;
17965;SDS011;9108;53.204;10.424;2023-10-09T08:36:50;11.10;;;5.53;;
17965;SDS011;9108;53.204;10.424;2023-10-09T08:39:18;11.52;;;5.82;;
17965;SDS011;9108;53.204;10.424;2023-10-09T08:41:51;9.93;;;5.70;;
17965;SDS011;9108;53.204;10.424;2023-10-09T08:44:19;11.07;;;6.00;;
17965;SDS011;9108;53.204;10.424;2023-10-09T08:46:50;12.77;;;6.80;;
17965;SDS011;9108;53.204;10.424;2023-10-09T08:49:18;14.10;;;6.80;;
17965;SDS011;9108;53.204;10.424;2023-10-09T08:51:46;13.50;;;7.00;;
17965;SDS011;9108;53.204;10.424;2023-10-09T08:54:15;12.73;;;6.80;;
17965;SDS011;9108;53.204;10.424;2023-10-09T08:56:42;14.85;;;7.63;;
17965;SDS011;9108;53.204;10.424;2023-10-09T08:59:14;18.67;;;7.95;;
17965;SDS011;9108;53.204;10.424;2023-10-09T09:01:44;16.75;;;7.72;;
17965;SDS011;9108;53.204;10.424;2023-10-09T09:06:56;17.20;;;8.00;;
17965;SDS011;9108;53.204;10.424;2023-10-09T09:09:25;17.48;;;7.60;;
17965;SDS011;9108;53.204;10.424;2023-10-09T09:11:55;18.45;;;8.48;;
17965;SDS011;9108;53.204;10.424;2023-10-09T09:14:35;16.92;;;8.20;;
17965;SDS011;9108;53.204;10.424;2023-10-09T09:17:03;17.85;;;8.38;;
17965;SDS011;9108;53.204;10.424;2023-10-09T09:19:34;18.40;;;8.35;;
17965;SDS011;9108;53.204;10.424;2023-10-09T09:22:03;17.85;;;8.73;;
17965;SDS011;9108;53.204;10.424;2023-10-09T09:24:39;17.60;;;8.10;;
17965;SDS011;9108;53.204;10.424;2023-10-09T09:27:11;19.93;;;8.70;;
17965;SDS011;9108;53.204;10.424;2023-10-09T09:29:45;16.80;;;8.52;;
17965;SDS011;9108;53.204;10.424;2023-10-09T09:32:26;18.70;;;8.95;;
17965;SDS011;9108;53.204;10.424;2023-10-09T09:34:55;19.88;;;9.48;;
17965;SDS011;9108;53.204;10.424;2023-10-09T09:37:26;19.70;;;9.00;;
17965;SDS011;9108;53.204;10.424;2023-10-09T09:39:56;19.20;;;9.05;;
17965;SDS011;9108;53.204;10.424;2023-10-09T09:42:25;20.40;;;9.57;;
17965;SDS011;9108;53.204;10.424;2023-10-09T09:44:56;20.70;;;9.60;;
17965;SDS011;9108;53.204;10.424;2023-10-09T09:47:25;20.23;;;9.40;;
17965;SDS011;9108;53.204;10.424;2023-10-09T09:49:54;19.93;;;9.30;;
17965;SDS011;9108;53.204;10.424;2023-10-09T09:52:34;21.25;;;9.35;;
17965;SDS011;9108;53.204;10.424;2023-10-09T09:55:19;21.35;;;9.15;;
17965;SDS011;9108;53.204;10.424;2023-10-09T09:58:20;18.43;;;8.00;;
17965;SDS011;9108;53.204;10.424;2023-10-09T10:01:30;14.60;;;7.10;;
17965;SDS011;9108;53.204;10.424;2023-10-09T10:04:09;13.10;;;6.30;;
17965;SDS011;9108;53.204;10.424;2023-10-09T10:06:39;14.13;;;6.47;;
17965;SDS011;9108;53.204;10.424;2023-10-09T10:09:07;12.85;;;5.80;;
17965;SDS011;9108;53.204;10.424;2023-10-09T10:11:42;11.75;;;5.90;;
17965;SDS011;9108;53.204;10.424;2023-10-09T10:14:10;10.30;;;5.38;;
17965;SDS011;9108;53.204;10.424;2023-10-09T10:16:59;9.55;;;5.00;;
17965;SDS011;9108;53.204;10.424;2023-10-09T10:22:22;8.55;;;4.82;;
17965;SDS011;9108;53.204;10.424;2023-10-09T10:24:52;9.43;;;4.55;;
17965;SDS011;9108;53.204;10.424;2023-10-09T10:27:21;6.80;;;4.18;;
17965;SDS011;9108;53.204;10.424;2023-10-09T10:32:52;6.40;;;3.60;;
17965;SDS011;9108;53.204;10.424;2023-10-09T10:35:20;5.97;;;3.40;;
17965;SDS011;9108;53.204;10.424;2023-10-09T10:37:57;6.15;;;3.33;;
17965;SDS011;9108;53.204;10.424;2023-10-09T10:40:36;4.72;;;2.70;;
17965;SDS011;9108;53.204;10.424;2023-10-09T10:43:15;3.88;;;2.60;;
17965;SDS011;9108;53.204;10.424;2023-10-09T10:46:00;4.95;;;2.40;;
17965;SDS011;9108;53.204;10.424;2023-10-09T10:48:33;4.80;;;2.73;;
17965;SDS011;9108;53.204;10.424;2023-10-09T10:51:03;3.42;;;2.47;;
17965;SDS011;9108;53.204;10.424;2023-10-09T10:53:30;5.35;;;2.40;;
17965;SDS011;9108;53.204;10.424;2023-10-09T10:56:12;3.42;;;2.17;;
17965;SDS011;9108;53.204;10.424;2023-10-09T10:58:52;4.43;;;2.15;;
17965;SDS011;9108;53.204;10.424;2023-10-09T11:01:36;3.25;;;2.03;;
17965;SDS011;9108;53.204;10.424;2023-10-09T11:04:18;3.35;;;2.05;;
17965;SDS011;9108;53.204;10.424;2023-10-09T11:06:52;2.53;;;1.90;;
17965;SDS011;9108;53.204;10.424;2023-10-09T11:09:25;2.70;;;1.90;;
17965;SDS011;9108;53.204;10.424;2023-10-09T11:12:04;3.30;;;1.90;;
17965;SDS011;9108;53.204;10.424;2023-10-09T11:14:48;2.88;;;1.92;;
17965;SDS011;9108;53.204;10.424;2023-10-09T11:17:31;2.80;;;1.90;;
17965;SDS011;9108;53.204;10.424;2023-10-09T11:20:00;3.33;;;2.05;;
17965;SDS011;9108;53.204;10.424;2023-10-09T11:22:47;2.97;;;1.80;;
17965;SDS011;9108;53.204;10.424;2023-10-09T11:25:36;2.77;;;1.70;;
17965;SDS011;9108;53.204;10.424;2023-10-09T11:28:15;2.17;;;1.50;;
17965;SDS011;9108;53.204;10.424;2023-10-09T11:30:54;3.35;;;1.70;;
17965;SDS011;9108;53.204;10.424;2023-10-09T11:33:20;2.45;;;1.63;;
17965;SDS011;9108;53.204;10.424;2023-10-09T11:35:54;2.07;;;1.50;;
17965;SDS011;9108;53.204;10.424;2023-10-09T11:38:23;2.00;;;1.40;;
17965;SDS011;9108;53.204;10.424;2023-10-09T11:40:50;2.40;;;1.50;;
17965;SDS011;9108;53.204;10.424;2023-10-09T11:43:44;1.85;;;1.30;;
17965;SDS011;9108;53.204;10.424;2023-10-09T11:46:18;1.75;;;1.20;;
17965;SDS011;9108;53.204;10.424;2023-10-09T11:49:04;1.70;;;1.35;;
17965;SDS011;9108;53.204;10.424;2023-10-09T11:52:04;2.78;;;1.20;;
17965;SDS011;9108;53.204;10.424;2023-10-09T11:54:55;1.88;;;1.30;;
17965;SDS011;9108;53.204;10.424;2023-10-09T11:57:25;1.67;;;1.30;;
17965;SDS011;9108;53.204;10.424;2023-10-09T11:59:59;2.20;;;1.13;;
17965;SDS011;9108;53.204;10.424;2023-10-09T12:02:28;1.77;;;1.38;;
17965;SDS011;9108;53.204;10.424;2023-10-09T12:04:56;2.10;;;1.40;;
17965;SDS011;9108;53.204;10.424;2023-10-09T12:07:24;2.17;;;1.40;;
17965;SDS011;9108;53.204;10.424;2023-10-09T12:09:52;3.33;;;1.40;;
17965;SDS011;9108;53.204;10.424;2023-10-09T12:12:21;1.50;;;1.20;;
17965;SDS011;9108;53.204;10.424;2023-10-09T12:14:52;2.08;;;1.17;;
17965;SDS011;9108;53.204;10.424;2023-10-09T12:17:19;1.67;;;1.25;;
17965;SDS011;9108;53.204;10.424;2023-10-09T12:19:51;1.90;;;1.35;;
17965;SDS011;9108;53.204;10.424;2023-10-09T12:22:18;1.70;;;1.30;;
17965;SDS011;9108;53.204;10.424;2023-10-09T12:24:46;2.22;;;1.40;;
17965;SDS011;9108;53.204;10.424;2023-10-09T12:27:13;2.72;;;1.67;;
17965;SDS011;9108;53.204;10.424;2023-10-09T12:29:45;1.73;;;1.30;;
17965;SDS011;9108;53.204;10.424;2023-10-09T12:32:13;1.80;;;1.50;;
17965;SDS011;9108;53.204;10.424;2023-10-09T12:34:44;1.90;;;1.30;;
17965;SDS011;9108;53.204;10.424;2023-10-09T12:37:16;1.70;;;1.30;;
17965;SDS011;9108;53.204;10.424;2023-10-09T12:39:45;1.85;;;1.23;;
17965;SDS011;9108;53.204;10.424;2023-10-09T12:42:13;2.65;;;1.45;;
17965;SDS011;9108;53.204;10.424;2023-10-09T12:44:41;1.87;;;1.30;;
17965;SDS011;9108;53.204;10.424;2023-10-09T12:47:09;2.20;;;1.40;;
17965;SDS011;9108;53.204;10.424;2023-10-09T12:49:37;2.33;;;1.27;;
17965;SDS011;9108;53.204;10.424;2023-10-09T12:52:06;2.30;;;1.27;;
17965;SDS011;9108;53.204;10.424;2023-10-09T12:54:42;2.77;;;1.33;;
17965;SDS011;9108;53.204;10.424;2023-10-09T12:57:11;1.75;;;1.30;;
17965;SDS011;9108;53.204;10.424;2023-10-09T12:59:39;1.70;;;1.30;;
17965;SDS011;9108;53.204;10.424;2023-10-09T13:02:10;1.80;;;1.25;;
17965;SDS011;9108;53.204;10.424;2023-10-09T13:04:38;1.80;;;1.30;;
17965;SDS011;9108;53.204;10.424;2023-10-09T13:07:07;1.90;;;1.40;;
17965;SDS011;9108;53.204;10.424;2023-10-09T13:09:34;2.20;;;1.30;;
17965;SDS011;9108;53.204;10.424;2023-10-09T13:12:09;1.67;;;1.20;;
17965;SDS011;9108;53.204;10.424;2023-10-09T13:14:43;1.67;;;1.23;;
17965;SDS011;9108;53.204;10.424;2023-10-09T13:17:12;1.50;;;1.20;;
17965;SDS011;9108;53.204;10.424;2023-10-09T13:19:40;2.17;;;1.53;;
17965;SDS011;9108;53.204;10.424;2023-10-09T13:22:09;2.13;;;1.45;;
17965;SDS011;9108;53.204;10.424;2023-10-09T13:24:38;2.40;;;1.40;;
17965;SDS011;9108;53.204;10.424;2023-10-09T13:27:06;1.75;;;1.20;;
17965;SDS011;9108;53.204;10.424;2023-10-09T13:29:36;2.10;;;1.50;;
17965;SDS011;9108;53.204;10.424;2023-10-09T13:32:05;2.60;;;1.60;;
17965;SDS011;9108;53.204;10.424;2023-10-09T13:34:38;2.13;;;1.42;;
17965;SDS011;9108;53.204;10.424;2023-10-09T13:37:09;1.65;;;1.30;;
17965;SDS011;9108;53.204;10.424;2023-10-09T13:39:38;2.00;;;1.60;;
17965;SDS011;9108;53.204;10.424;2023-10-09T13:42:17;2.10;;;1.50;;
17965;SDS011;9108;53.204;10.424;2023-10-09T13:44:45;2.83;;;1.67;;
17965;SDS011;9108;53.204;10.424;2023-10-09T13:47:14;3.05;;;1.70;;
17965;SDS011;9108;53.204;10.424;2023-10-09T13:49:45;3.00;;;1.80;;
17965;SDS011;9108;53.204;10.424;2023-10-09T13:52:15;2.65;;;1.75;;
17965;SDS011;9108;53.204;10.424;2023-10-09T13:54:44;4.38;;;2.13;;
17965;SDS011;9108;53.204;10.424;2023-10-09T13:57:14;3.10;;;2.10;;
17965;SDS011;9108;53.204;10.424;2023-10-09T13:59:42;3.00;;;2.05;;
17965;SDS011;9108;53.204;10.424;2023-10-09T14:02:15;3.35;;;2.10;;
17965;SDS011;9108;53.204;10.424;2023-10-09T14:04:46;4.57;;;2.20;;
17965;SDS011;9108;53.204;10.424;2023-10-09T14:07:13;2.92;;;1.92;;
17965;SDS011;9108;53.204;10.424;2023-10-09T14:09:42;3.30;;;2.22;;
17965;SDS011;9108;53.204;10.424;2023-10-09T14:12:20;3.38;;;2.35;;
17965;SDS011;9108;53.204;10.424;2023-10-09T14:14:49;3.30;;;2.25;;
17965;SDS011;9108;53.204;10.424;2023-10-09T14:17:21;4.13;;;2.40;;
17965;SDS011;9108;53.204;10.424;2023-10-09T14:19:50;4.63;;;2.57;;
17965;SDS011;9108;53.204;10.424;2023-10-09T14:22:18;3.92;;;2.65;;
17965;SDS011;9108;53.204;10.424;2023-10-09T14:24:46;6.27;;;3.10;;
17965;SDS011;9108;53.204;10.424;2023-10-09T14:27:20;4.43;;;3.17;;
17965;SDS011;9108;53.204;10.424;2023-10-09T14:29:51;4.00;;;2.90;;
17965;SDS011;9108;53.204;10.424;2023-10-09T14:32:22;3.47;;;2.72;;
17965;SDS011;9108;53.204;10.424;2023-10-09T14:34:53;4.75;;;3.10;;
17965;SDS011;9108;53.204;10.424;2023-10-09T14:37:26;9.60;;;4.33;;
17965;SDS011;9108;53.204;10.424;2023-10-09T14:39:53;5.85;;;3.58;;
17965;SDS011;9108;53.204;10.424;2023-10-09T14:42:20;4.65;;;3.00;;
17965;SDS011;9108;53.204;10.424;2023-10-09T14:44:49;4.78;;;3.10;;
17965;SDS011;9108;53.204;10.424;2023-10-09T14:47:16;5.05;;;3.10;;
17965;SDS011;9108;53.204;10.424;2023-10-09T14:49:48;5.78;;;3.35;;
17965;SDS011;9108;53.204;10.424;2023-10-09T14:52:17;5.10;;;3.33;;
17965;SDS011;9108;53.204;10.424;2023-10-09T14:54:46;6.28;;;3.40;;
17965;SDS011;9108;53.204;10.424;2023-10-09T14:57:18;10.38;;;4.80;;
17965;SDS011;9108;53.204;10.424;2023-10-09T14:59:45;9.48;;;4.80;;
17965;SDS011;9108;53.204;10.424;2023-10-09T15:02:14;7.57;;;3.72;;
17965;SDS011;9108;53.204;10.424;2023-10-09T15:04:44;5.97;;;3.10;;
17965;SDS011;9108;53.204;10.424;2023-10-09T15:07:14;4.43;;;2.92;;
17965;SDS011;9108;53.204;10.424;2023-10-09T15:09:41;5.63;;;3.17;;
17965;SDS011;9108;53.204;10.424;2023-10-09T15:12:08;5.45;;;3.50;;
17965;SDS011;9108;53.204;10.424;2023-10-09T15:14:37;6.05;;;3.88;;
17965;SDS011;9108;53.204;10.424;2023-10-09T15:17:04;5.38;;;3.78;;
17965;SDS011;9108;53.204;10.424;2023-10-09T15:19:32;5.67;;;3.70;;
17965;SDS011;9108;53.204;10.424;2023-10-09T15:21:59;5.85;;;3.63;;
17965;SDS011;9108;53.204;10.424;2023-10-09T15:24:28;5.97;;;3.63;;
17965;SDS011;9108;53.204;10.424;2023-10-09T15:26:55;5.30;;;3.30;;
17965;SDS011;9108;53.204;10.424;2023-10-09T15:29:23;4.22;;;3.00;;
17965;SDS011;9108;53.204;10.424;2023-10-09T15:31:54;6.37;;;3.33;;
17965;SDS011;9108;53.204;10.424;2023-10-09T15:34:21;5.70;;;3.58;;